Time;durP1;ratioP1;P1;durP2;ratioP2;P2;SDS_P1;SDS_P2;PMS_P1;PMS_P2;Temp;Humidity;BMP_temperature;BMP_pressure;BME280_temperature;BME280_humidity;BME280_pressure;Samples;Min_cycle;Max_cycle;Signal;HPM_P1;HPM_P2
2023/05/07 00:00:29;;;;;;;6.75;4.70;;;;;;;-140.66;100.00;55571.53;5116296;28;20035;-70
2023/05/07 00:03:15;;;;;;;5.93;5.10;;;;;;;-140.66;100.00;55571.53;5116286;28;20019;-70
2023/05/07 00:06:01;;;;;;;7.78;5.20;;;;;;;-140.66;100.00;55571.53;5116182;28;20020;-71
2023/05/07 00:08:46;;;;;;;9.32;4.72;;;;;;;-140.66;100.00;55571.53;5115346;28;20030;-71
2023/05/07 00:11:33;;;;;;;9.27;5.05;;;;;;;-140.66;100.00;55571.53;5116085;28;20039;-70
2023/05/07 00:14:18;;;;;;;11.40;4.97;;;;;;;-140.66;100.00;55571.53;5102498;28;20027;-71
2023/05/07 00:17:04;;;;;;;9.05;5.28;;;;;;;-140.66;100.00;55571.53;5116979;28;20478;-71
2023/05/07 00:19:50;;;;;;;10.00;5.50;;;;;;;-140.66;100.00;55571.53;5102547;28;20037;-71
2023/05/07 00:22:36;;;;;;;10.32;6.15;;;;;;;-140.66;100.00;55571.53;5115601;28;20023;-71
2023/05/07 00:25:22;;;;;;;9.18;5.60;;;;;;;-140.66;100.00;55571.53;5117154;28;20023;-71
2023/05/07 00:28:07;;;;;;;10.88;5.88;;;;;;;-140.66;100.00;55571.53;5115710;28;20120;-72
2023/05/07 00:30:53;;;;;;;9.63;6.07;;;;;;;-140.66;100.00;55571.53;5101263;28;20105;-70
2023/05/07 00:33:39;;;;;;;11.98;5.93;;;;;;;-140.66;100.00;55571.53;5112520;28;20032;-70
2023/05/07 00:36:26;;;;;;;13.40;6.43;;;;;;;-140.66;100.00;55571.53;5120061;28;20028;-70
2023/05/07 00:39:11;;;;;;;11.05;7.00;;;;;;;-140.66;100.00;55571.53;5115829;28;20028;-71
2023/05/07 00:41:57;;;;;;;9.38;6.20;;;;;;;-140.66;100.00;55571.53;5115759;28;20038;-71
2023/05/07 00:44:43;;;;;;;14.35;7.47;;;;;;;-140.66;100.00;55571.53;5115429;28;20032;-71
2023/05/07 00:47:29;;;;;;;9.35;6.65;;;;;;;-140.66;100.00;55571.53;5115608;28;20047;-71
2023/05/07 00:50:14;;;;;;;10.30;6.75;;;;;;;-140.66;100.00;55571.53;5115324;28;20031;-70
2023/05/07 00:53:00;;;;;;;10.00;6.70;;;;;;;-140.66;100.00;55571.53;5115673;28;20028;-70
2023/05/07 00:55:46;;;;;;;12.32;7.25;;;;;;;-140.66;100.00;55571.53;5115174;28;20027;-71
2023/05/07 00:58:33;;;;;;;10.27;6.50;;;;;;;-140.66;100.00;55571.53;5115069;28;20024;-71
2023/05/07 01:01:18;;;;;;;9.93;6.30;;;;;;;-140.66;100.00;55571.53;5114760;28;20122;-71
2023/05/07 01:04:05;;;;;;;11.75;7.15;;;;;;;-140.66;100.00;55571.53;5115126;28;20030;-70
2023/05/07 01:06:52;;;;;;;10.68;7.40;;;;;;;-140.66;100.00;55571.53;5115234;28;20024;-70
2023/05/07 01:09:38;;;;;;;10.80;6.45;;;;;;;-140.66;100.00;55571.53;5116167;28;20108;-70
2023/05/07 01:12:25;;;;;;;11.80;7.22;;;;;;;-140.66;100.00;55571.53;5114914;28;20115;-71
2023/05/07 01:15:11;;;;;;;8.32;6.63;;;;;;;-140.66;100.00;55571.53;5114781;28;20038;-70
2023/05/07 01:17:57;;;;;;;10.90;7.55;;;;;;;-140.66;100.00;55571.53;5114587;28;20034;-70
2023/05/07 01:20:43;;;;;;;9.75;6.93;;;;;;;-140.66;100.00;55571.53;5114402;28;20024;-70
2023/05/07 01:23:30;;;;;;;12.50;6.68;;;;;;;-140.66;100.00;55571.53;5114659;28;20038;-70
2023/05/07 01:26:16;;;;;;;10.63;7.03;;;;;;;-140.66;100.00;55571.53;5114381;28;20027;-70
2023/05/07 01:29:01;;;;;;;9.35;6.40;;;;;;;-140.66;100.00;55571.53;5114555;28;20019;-70
2023/05/07 01:31:47;;;;;;;8.32;5.82;;;;;;;-140.66;100.00;55571.53;5114862;28;20088;-71
2023/05/07 01:34:35;;;;;;;8.18;6.35;;;;;;;-140.66;100.00;55571.53;5100417;28;20031;-71
2023/05/07 01:37:22;;;;;;;18.20;7.13;;;;;;;-140.66;100.00;55571.53;5114547;28;20389;-70
2023/05/07 01:40:09;;;;;;;10.55;6.75;;;;;;;-140.66;100.00;55571.53;5114467;28;20027;-70
2023/05/07 01:42:55;;;;;;;9.27;6.65;;;;;;;-140.66;100.00;55571.53;5114398;28;20031;-71
2023/05/07 01:45:41;;;;;;;13.15;6.95;;;;;;;-140.66;100.00;55571.53;5114706;28;20022;-70
2023/05/07 01:48:27;;;;;;;9.75;6.85;;;;;;;-140.66;100.00;55571.53;5114949;28;20031;-70
2023/05/07 01:51:13;;;;;;;7.38;5.95;;;;;;;-140.66;100.00;55571.53;5114479;28;20044;-70
2023/05/07 01:54:00;;;;;;;12.93;5.82;;;;;;;-140.66;100.00;55571.53;5114240;28;20023;-69
2023/05/07 01:56:47;;;;;;;11.55;6.13;;;;;;;-140.66;100.00;55571.53;5113997;28;20069;-70
2023/05/07 01:59:33;;;;;;;8.95;5.85;;;;;;;-140.66;100.00;55571.53;5114364;28;20023;-70
2023/05/07 02:02:19;;;;;;;8.05;6.05;;;;;;;-140.66;100.00;55571.53;5114126;28;20110;-69
2023/05/07 02:05:05;;;;;;;8.90;5.95;;;;;;;-140.66;100.00;55571.53;5114219;28;20088;-70
2023/05/07 02:07:51;;;;;;;12.20;6.35;;;;;;;-140.66;100.00;55571.53;5115094;28;20046;-70
2023/05/07 02:10:37;;;;;;;9.80;5.72;;;;;;;-140.66;100.00;55571.53;5113842;28;20467;-71
2023/05/07 02:13:24;;;;;;;9.80;6.32;;;;;;;-140.66;100.00;55571.53;5114036;28;20027;-70
2023/05/07 02:16:10;;;;;;;9.65;6.20;;;;;;;-140.66;100.00;55571.53;5114108;28;20028;-71
2023/05/07 02:18:56;;;;;;;9.68;6.28;;;;;;;-140.66;100.00;55571.53;5113986;28;20122;-70
2023/05/07 02:21:42;;;;;;;10.80;6.38;;;;;;;-140.66;100.00;55571.53;5114080;28;20032;-71
2023/05/07 02:24:27;;;;;;;10.15;6.70;;;;;;;-140.66;100.00;55571.53;5113931;28;20447;-71
2023/05/07 02:27:13;;;;;;;11.35;7.28;;;;;;;-140.66;100.00;55571.53;5114166;28;20451;-70
2023/05/07 02:29:59;;;;;;;10.95;7.32;;;;;;;-140.66;100.00;55571.53;5113911;28;20459;-70
2023/05/07 02:32:45;;;;;;;11.18;7.88;;;;;;;-140.66;100.00;55571.53;5104341;28;20059;-72
2023/05/07 02:35:31;;;;;;;15.07;7.80;;;;;;;-140.66;100.00;55571.53;5117583;28;20110;-70
2023/05/07 02:38:16;;;;;;;12.13;7.68;;;;;;;-140.66;100.00;55571.53;5104440;28;20024;-71
2023/05/07 02:41:02;;;;;;;12.80;7.45;;;;;;;-140.66;100.00;55571.53;5118405;28;20032;-70
2023/05/07 02:43:48;;;;;;;10.13;7.43;;;;;;;-140.66;100.00;55571.53;5117960;28;20468;-70
2023/05/07 02:46:33;;;;;;;12.00;7.22;;;;;;;-140.66;100.00;55571.53;5117405;28;20337;-70
2023/05/07 02:49:19;;;;;;;9.70;7.07;;;;;;;-140.66;100.00;55571.53;5118783;28;20023;-70
2023/05/07 02:52:05;;;;;;;10.60;7.18;;;;;;;-140.66;100.00;55571.53;5117746;28;20042;-71
2023/05/07 02:54:51;;;;;;;9.23;6.72;;;;;;;-140.66;100.00;55571.53;5117608;28;20107;-70
2023/05/07 02:57:36;;;;;;;11.18;6.88;;;;;;;-140.66;100.00;55571.53;5104117;28;20408;-70
2023/05/07 03:00:22;;;;;;;11.52;7.35;;;;;;;-140.66;100.00;55571.53;5117200;28;20470;-70
2023/05/07 03:03:08;;;;;;;10.23;7.00;;;;;;;-140.66;100.00;55571.53;5118662;28;20325;-70
2023/05/07 03:05:54;;;;;;;11.50;6.63;;;;;;;-140.66;100.00;55571.53;5117440;28;20352;-70
2023/05/07 03:08:40;;;;;;;9.18;6.07;;;;;;;-140.66;100.00;55571.53;5117057;28;20440;-71
2023/05/07 03:11:26;;;;;;;11.63;6.90;;;;;;;-140.66;100.00;55571.53;5116993;28;20083;-71
2023/05/07 03:14:12;;;;;;;16.10;7.28;;;;;;;-140.66;100.00;55571.53;5117067;28;20329;-71
2023/05/07 03:16:57;;;;;;;11.52;6.85;;;;;;;-140.66;100.00;55571.53;5116794;28;20165;-70
2023/05/07 03:19:43;;;;;;;12.95;7.00;;;;;;;-140.66;100.00;55571.53;5117158;28;20100;-71
2023/05/07 03:22:29;;;;;;;9.98;7.15;;;;;;;-140.66;100.00;55571.53;5117293;28;20077;-71
2023/05/07 03:25:14;;;;;;;11.80;6.55;;;;;;;-140.66;100.00;55571.53;5117006;28;20016;-70
2023/05/07 03:28:00;;;;;;;9.35;6.20;;;;;;;-140.66;100.00;55571.53;5118057;28;20030;-70
2023/05/07 03:30:46;;;;;;;11.75;6.72;;;;;;;-140.66;100.00;55571.53;5116855;28;20024;-70
2023/05/07 03:33:33;;;;;;;7.93;6.35;;;;;;;-140.66;100.00;55571.53;5102747;28;20428;-70
2023/05/07 03:36:19;;;;;;;13.98;6.63;;;;;;;-140.66;100.00;55571.53;5117373;28;20027;-71
2023/05/07 03:39:05;;;;;;;11.65;6.50;;;;;;;-140.66;100.00;55571.53;5117100;28;20085;-70
2023/05/07 03:41:51;;;;;;;11.88;6.35;;;;;;;-140.66;100.00;55571.53;5117007;28;20023;-70
2023/05/07 03:44:36;;;;;;;14.18;6.75;;;;;;;-140.66;100.00;55571.53;5116639;28;20024;-71
2023/05/07 03:47:22;;;;;;;11.38;6.43;;;;;;;-140.66;100.00;55571.53;5117795;28;20031;-70
2023/05/07 03:50:08;;;;;;;10.63;6.03;;;;;;;-140.66;100.00;55571.53;5116524;28;20023;-70
2023/05/07 03:52:54;;;;;;;16.05;7.20;;;;;;;-140.66;100.00;55571.53;5101269;28;20110;-71
2023/05/07 03:55:40;;;;;;;10.45;5.90;;;;;;;-140.66;100.00;55571.53;5117249;28;20031;-70
2023/05/07 03:58:26;;;;;;;11.77;6.07;;;;;;;-140.66;100.00;55571.53;5116458;28;20034;-71
2023/05/07 04:01:12;;;;;;;10.63;6.40;;;;;;;-140.66;100.00;55571.53;5116222;28;20441;-71
2023/05/07 04:03:57;;;;;;;12.10;6.43;;;;;;;-140.66;100.00;55571.53;5116485;28;20027;-70
2023/05/07 04:06:43;;;;;;;9.98;5.97;;;;;;;-140.66;100.00;55571.53;5115851;28;20458;-71
2023/05/07 04:09:29;;;;;;;8.80;6.03;;;;;;;-140.66;100.00;55571.53;5116132;28;20052;-71
2023/05/07 04:12:15;;;;;;;8.95;5.47;;;;;;;-140.66;100.00;55571.53;5116004;28;20066;-71
2023/05/07 04:15:00;;;;;;;9.85;5.18;;;;;;;-140.66;100.00;55571.53;5116553;28;20051;-71
2023/05/07 04:17:46;;;;;;;10.15;5.80;;;;;;;-140.66;100.00;55571.53;5101652;28;20024;-71
2023/05/07 04:20:36;;;;;;;6.55;4.88;;;;;;;-140.66;100.00;55571.53;5115883;28;20032;-71
2023/05/07 04:23:21;;;;;;;9.60;5.10;;;;;;;-140.66;100.00;55571.53;5116189;28;20034;-71
2023/05/07 04:26:07;;;;;;;8.55;5.07;;;;;;;-140.66;100.00;55571.53;5117283;28;20328;-72
2023/05/07 04:28:53;;;;;;;8.32;5.28;;;;;;;-140.66;100.00;55571.53;5115865;28;20028;-71
2023/05/07 04:31:39;;;;;;;7.35;4.97;;;;;;;-140.66;100.00;55571.53;5116199;28;20452;-71
2023/05/07 04:34:24;;;;;;;7.85;5.25;;;;;;;-140.66;100.00;55571.53;5115690;28;20097;-71
2023/05/07 04:37:10;;;;;;;7.55;5.55;;;;;;;-140.66;100.00;55571.53;5115426;28;20110;-70
2023/05/07 04:39:56;;;;;;;10.88;6.07;;;;;;;-140.66;100.00;55571.53;5115143;28;20028;-71
2023/05/07 04:42:42;;;;;;;10.38;6.32;;;;;;;-140.66;100.00;55571.53;5115286;28;20031;-71
2023/05/07 04:45:28;;;;;;;11.65;7.13;;;;;;;-140.66;100.00;55571.53;5115431;28;20352;-71
2023/05/07 04:48:15;;;;;;;12.00;6.22;;;;;;;-140.66;100.00;55571.53;5115497;28;20035;-71
2023/05/07 04:51:00;;;;;;;10.63;6.65;;;;;;;-140.66;100.00;55571.53;5115792;28;20107;-70
2023/05/07 04:53:46;;;;;;;12.65;6.80;;;;;;;-140.66;100.00;55571.53;5114597;28;20447;-70
2023/05/07 04:56:32;;;;;;;8.65;6.30;;;;;;;-140.66;100.00;55571.53;5116258;28;20024;-72
2023/05/07 04:59:18;;;;;;;10.82;6.35;;;;;;;-140.66;100.00;55571.53;5101350;28;20084;-70
2023/05/07 05:02:06;;;;;;;9.70;6.07;;;;;;;-140.66;100.00;55571.53;5114727;28;20027;-71
2023/05/07 05:04:52;;;;;;;9.15;5.75;;;;;;;-140.66;100.00;55571.53;5115139;28;20088;-71
2023/05/07 05:07:38;;;;;;;8.35;6.03;;;;;;;-140.66;100.00;55571.53;5115050;28;20031;-71
2023/05/07 05:10:24;;;;;;;10.65;5.80;;;;;;;-140.66;100.00;55571.53;5115872;28;20043;-71
2023/05/07 05:13:12;;;;;;;10.38;6.32;;;;;;;-140.66;100.00;55571.53;5114614;28;20038;-70
2023/05/07 05:15:58;;;;;;;9.95;5.93;;;;;;;-140.66;100.00;55571.53;5114537;28;20358;-71
2023/05/07 05:18:43;;;;;;;11.18;6.32;;;;;;;-140.66;100.00;55571.53;5114788;28;20016;-70
2023/05/07 05:21:31;;;;;;;11.20;6.85;;;;;;;-140.66;100.00;55571.53;5114272;28;20035;-71
2023/05/07 05:24:17;;;;;;;11.68;5.93;;;;;;;-140.66;100.00;55571.53;5100814;28;20072;-71
2023/05/07 05:27:03;;;;;;;13.88;7.65;;;;;;;-140.66;100.00;55571.53;5114311;28;20448;-70
2023/05/07 05:29:49;;;;;;;10.93;7.18;;;;;;;-140.66;100.00;55571.53;5114503;28;20027;-71
2023/05/07 05:32:35;;;;;;;15.32;7.07;;;;;;;-140.66;100.00;55571.53;5099420;28;20088;-70
2023/05/07 05:35:20;;;;;;;18.20;7.70;;;;;;;-140.66;100.00;55571.53;5114596;28;20034;-71
2023/05/07 05:38:06;;;;;;;19.13;8.27;;;;;;;-140.66;100.00;55571.53;5114473;28;20024;-71
2023/05/07 05:40:52;;;;;;;16.30;6.85;;;;;;;-140.66;100.00;55571.53;5114393;28;20032;-71
2023/05/07 05:43:38;;;;;;;14.45;6.47;;;;;;;-140.66;100.00;55571.53;5115327;28;20031;-70
2023/05/07 05:46:23;;;;;;;14.38;7.40;;;;;;;-140.66;100.00;55571.53;5114991;28;20085;-71
2023/05/07 05:49:09;;;;;;;12.20;6.55;;;;;;;-140.66;100.00;55571.53;5114705;28;20463;-72
2023/05/07 05:51:55;;;;;;;12.90;6.32;;;;;;;-140.66;100.00;55571.53;5116122;28;20063;-71
2023/05/07 05:54:41;;;;;;;10.50;6.35;;;;;;;-140.66;100.00;55571.53;5100417;28;20110;-71
2023/05/07 05:57:27;;;;;;;11.90;6.40;;;;;;;-140.66;100.00;55571.53;5103872;28;20038;-72
2023/05/07 06:00:13;;;;;;;10.77;5.57;;;;;;;-140.66;100.00;55571.53;5105915;28;20023;-72
2023/05/07 06:02:59;;;;;;;11.77;5.78;;;;;;;-140.66;100.00;55571.53;5103697;28;20062;-72
2023/05/07 06:05:44;;;;;;;8.95;5.65;;;;;;;-140.66;100.00;55571.53;5102336;28;20061;-71
2023/05/07 06:08:30;;;;;;;13.73;5.53;;;;;;;-140.66;100.00;55571.53;5104987;28;20348;-71
2023/05/07 06:11:16;;;;;;;10.05;4.93;;;;;;;-140.66;100.00;55571.53;5117785;28;20048;-72
2023/05/07 06:14:02;;;;;;;10.60;4.93;;;;;;;-140.66;100.00;55571.53;5117814;28;20028;-71
2023/05/07 06:16:47;;;;;;;9.40;5.30;;;;;;;-140.66;100.00;55571.53;5118240;28;20032;-70
2023/05/07 06:19:33;;;;;;;13.05;5.45;;;;;;;-140.66;100.00;55571.53;5118177;28;20028;-70
2023/05/07 06:22:19;;;;;;;9.77;5.00;;;;;;;-140.66;100.00;55571.53;5117920;28;20023;-71
2023/05/07 06:25:05;;;;;;;11.10;6.50;;;;;;;-140.66;100.00;55571.53;5118840;28;20088;-71
2023/05/07 06:27:51;;;;;;;8.98;4.57;;;;;;;-140.66;100.00;55571.53;5117818;28;20088;-71
2023/05/07 06:30:36;;;;;;;11.50;6.18;;;;;;;-140.66;100.00;55571.53;5118371;28;20093;-71
2023/05/07 06:33:22;;;;;;;11.63;7.15;;;;;;;-140.66;100.00;55571.53;5118482;28;20483;-71
2023/05/07 06:36:08;;;;;;;8.10;5.07;;;;;;;-140.66;100.00;55571.53;5117597;28;20019;-71
2023/05/07 06:38:54;;;;;;;7.60;4.45;;;;;;;-140.66;100.00;55571.53;5117396;28;20019;-71
2023/05/07 06:41:40;;;;;;;7.63;4.22;;;;;;;-140.66;100.00;55571.53;5104105;28;20039;-70
2023/05/07 06:44:26;;;;;;;6.72;4.18;;;;;;;-140.66;100.00;55571.53;5117296;28;20030;-71
2023/05/07 06:47:11;;;;;;;8.73;3.80;;;;;;;-140.66;100.00;55571.53;5118050;28;20032;-71
2023/05/07 06:49:57;;;;;;;6.75;3.10;;;;;;;-140.66;100.00;55571.53;5117942;28;20024;-71
2023/05/07 06:52:43;;;;;;;5.22;2.90;;;;;;;-140.66;100.00;55571.53;5117370;28;20074;-71
2023/05/07 06:55:28;;;;;;;8.95;3.90;;;;;;;-140.66;100.00;55571.53;5118296;28;20379;-71
2023/05/07 06:58:14;;;;;;;6.82;3.15;;;;;;;-140.66;100.00;55571.53;5118105;28;20023;-71
2023/05/07 07:01:00;;;;;;;8.57;3.50;;;;;;;-140.66;100.00;55571.53;5103492;28;20020;-71
2023/05/07 07:03:46;;;;;;;5.53;2.97;;;;;;;-140.66;100.00;55571.53;5117240;28;20092;-71
2023/05/07 07:06:32;;;;;;;6.25;2.75;;;;;;;-140.66;100.00;55571.53;5103865;28;20062;-70
2023/05/07 07:09:18;;;;;;;7.25;2.35;;;;;;;-140.66;100.00;55571.53;5116855;28;20028;-71
2023/05/07 07:12:04;;;;;;;5.15;2.58;;;;;;;-140.66;100.00;55571.53;5117032;28;20367;-70
2023/05/07 07:14:50;;;;;;;24.88;3.38;;;;;;;-140.66;100.00;55571.53;5103269;28;20020;-70
2023/05/07 07:17:35;;;;;;;6.07;2.70;;;;;;;-140.66;100.00;55571.53;5116839;28;20055;-71
2023/05/07 07:20:21;;;;;;;4.05;2.60;;;;;;;-140.66;100.00;55571.53;5117461;28;20036;-71
2023/05/07 07:23:07;;;;;;;3.55;2.50;;;;;;;-140.66;100.00;55571.53;5117288;28;20116;-71
2023/05/07 07:25:53;;;;;;;5.28;2.50;;;;;;;-140.66;100.00;55571.53;5116852;28;20034;-71
2023/05/07 07:28:45;;;;;;;5.75;2.75;;;;;;;-140.66;100.00;55571.53;5117811;28;20436;-71
2023/05/07 07:31:31;;;;;;;6.57;3.00;;;;;;;-140.66;100.00;55571.53;5103154;28;20054;-70
2023/05/07 07:34:17;;;;;;;7.50;2.65;;;;;;;-140.66;100.00;55571.53;5117042;28;20038;-70
2023/05/07 07:37:05;;;;;;;4.80;3.03;;;;;;;-140.66;100.00;55571.53;5116765;28;20027;-71
2023/05/07 07:39:51;;;;;;;6.90;3.03;;;;;;;-140.66;100.00;55571.53;5116777;28;20033;-71
2023/05/07 07:42:40;;;;;;;7.05;3.30;;;;;;;-140.66;100.00;55571.53;5116911;28;20035;-71
2023/05/07 07:45:25;;;;;;;8.73;3.45;;;;;;;-140.66;100.00;55571.53;5117120;28;20458;-71
2023/05/07 07:48:11;;;;;;;10.02;3.13;;;;;;;-140.66;100.00;55571.53;5117047;28;20401;-71
2023/05/07 07:50:57;;;;;;;7.80;2.90;;;;;;;-140.66;100.00;55571.53;5116296;28;20047;-71
2023/05/07 07:53:43;;;;;;;4.95;3.03;;;;;;;-140.66;100.00;55571.53;5116509;28;20050;-71
2023/05/07 07:56:29;;;;;;;7.32;3.05;;;;;;;-140.66;100.00;55571.53;5116674;28;20020;-71
2023/05/07 07:59:18;;;;;;;5.22;2.92;;;;;;;-140.66;100.00;55571.53;5116071;28;20490;-71
2023/05/07 08:02:04;;;;;;;8.60;2.70;;;;;;;-140.66;100.00;55571.53;5116457;28;20035;-70
2023/05/07 08:04:49;;;;;;;4.60;2.50;;;;;;;-140.66;100.00;55571.53;5116432;28;20062;-72
2023/05/07 08:07:35;;;;;;;4.47;2.53;;;;;;;-140.66;100.00;55571.53;5116137;28;20477;-70
2023/05/07 08:10:21;;;;;;;5.28;2.50;;;;;;;-140.66;100.00;55571.53;5102079;28;20051;-71
2023/05/07 08:13:07;;;;;;;8.32;2.70;;;;;;;-140.66;100.00;55571.53;5102079;28;20024;-71
2023/05/07 08:15:53;;;;;;;6.55;2.60;;;;;;;-140.66;100.00;55571.53;5101797;28;20043;-71
2023/05/07 08:18:38;;;;;;;5.78;3.15;;;;;;;-140.66;100.00;55571.53;5116323;28;20023;-71
2023/05/07 08:21:24;;;;;;;8.95;3.38;;;;;;;-140.66;100.00;55571.53;5116051;28;20095;-70
2023/05/07 08:24:11;;;;;;;9.63;3.10;;;;;;;-140.66;100.00;55571.53;5116025;28;20030;-71
2023/05/07 08:26:57;;;;;;;4.55;3.00;;;;;;;-140.66;100.00;55571.53;5115551;28;20038;-71
2023/05/07 08:29:47;;;;;;;4.05;2.30;;;;;;;-140.66;100.00;55571.53;5115388;28;20168;-70
2023/05/07 08:32:32;;;;;;;10.68;2.67;;;;;;;-140.66;100.00;55571.53;5115724;28;20024;-71
2023/05/07 08:35:18;;;;;;;6.20;2.67;;;;;;;-140.66;100.00;55571.53;5115636;28;20023;-72
2023/05/07 08:38:04;;;;;;;7.43;2.47;;;;;;;-140.66;100.00;55571.53;5116032;28;20126;-71
2023/05/07 08:40:50;;;;;;;3.33;2.13;;;;;;;-140.66;100.00;55571.53;5115333;28;20112;-71
2023/05/07 08:43:37;;;;;;;7.00;2.50;;;;;;;-140.66;100.00;55571.53;5116257;28;20080;-70
2023/05/07 08:46:25;;;;;;;3.42;2.58;;;;;;;-140.66;100.00;55571.53;5116271;28;20047;-70
2023/05/07 08:49:11;;;;;;;4.22;2.33;;;;;;;-140.66;100.00;55571.53;5100800;28;20180;-71
2023/05/07 08:51:57;;;;;;;5.70;2.42;;;;;;;-140.66;100.00;55571.53;5115258;28;20047;-70
2023/05/07 08:54:43;;;;;;;4.72;2.45;;;;;;;-140.66;100.00;55571.53;5115639;28;20034;-71
2023/05/07 08:57:29;;;;;;;5.60;2.58;;;;;;;-140.66;100.00;55571.53;5115637;28;20027;-71
2023/05/07 09:00:15;;;;;;;4.32;2.50;;;;;;;-140.66;100.00;55571.53;5115555;28;20039;-72
2023/05/07 09:03:01;;;;;;;6.10;2.63;;;;;;;-140.66;100.00;55571.53;5115443;28;20024;-71
2023/05/07 09:05:47;;;;;;;5.63;2.30;;;;;;;-140.66;100.00;55571.53;5101758;28;20432;-71
2023/05/07 09:08:33;;;;;;;7.78;2.03;;;;;;;-140.66;100.00;55571.53;5115900;28;20114;-71
2023/05/07 09:11:21;;;;;;;3.53;2.10;;;;;;;-140.66;100.00;55571.53;5114544;28;20056;-71
2023/05/07 09:14:07;;;;;;;3.67;2.00;;;;;;;-140.66;100.00;55571.53;5115038;28;20064;-70
2023/05/07 09:16:54;;;;;;;2.53;1.90;;;;;;;-140.66;100.00;55571.53;5115488;28;20395;-71
2023/05/07 09:19:39;;;;;;;2.83;2.03;;;;;;;-140.66;100.00;55571.53;5101057;28;20036;-71
2023/05/07 09:22:25;;;;;;;6.35;2.20;;;;;;;-140.66;100.00;55571.53;5114690;28;20027;-71
2023/05/07 09:25:11;;;;;;;5.97;2.15;;;;;;;-140.66;100.00;55571.53;5114697;28;20020;-71
2023/05/07 09:27:57;;;;;;;4.20;2.30;;;;;;;-140.66;100.00;55571.53;5101298;28;20020;-71
2023/05/07 09:30:43;;;;;;;5.03;2.20;;;;;;;-140.66;100.00;55571.53;5116335;28;20062;-71
2023/05/07 09:33:30;;;;;;;10.63;2.95;;;;;;;-140.66;100.00;55571.53;5114623;28;20031;-71
2023/05/07 09:36:16;;;;;;;9.82;3.08;;;;;;;-140.66;100.00;55571.53;5114402;28;20028;-71
2023/05/07 09:39:01;;;;;;;4.93;2.05;;;;;;;-140.66;100.00;55571.53;5114551;28;20043;-70
2023/05/07 09:41:54;;;;;;;7.85;3.10;;;;;;;-140.66;100.00;55571.53;5100562;28;20400;-71
2023/05/07 09:44:40;;;;;;;5.45;2.22;;;;;;;-140.66;100.00;55571.53;5099565;28;20019;-71
2023/05/07 09:47:31;;;;;;;5.68;2.35;;;;;;;-140.66;100.00;55571.53;5100456;28;20028;-70
2023/05/07 09:50:19;;;;;;;4.25;2.67;;;;;;;-140.66;100.00;55571.53;5114163;28;20031;-71
2023/05/07 09:53:05;;;;;;;4.55;2.20;;;;;;;-140.66;100.00;55571.53;5114686;28;20425;-70
2023/05/07 09:55:52;;;;;;;6.65;2.20;;;;;;;-140.66;100.00;55571.53;5114107;28;20114;-70
2023/05/07 09:58:41;;;;;;;4.43;2.10;;;;;;;-140.66;100.00;55571.53;5114541;28;20024;-71
2023/05/07 10:01:27;;;;;;;3.63;2.13;;;;;;;-140.66;100.00;55571.53;5114034;28;20042;-70
2023/05/07 10:04:14;;;;;;;4.20;2.20;;;;;;;-140.66;100.00;55571.53;5114411;28;20038;-70
2023/05/07 10:07:00;;;;;;;5.35;2.28;;;;;;;-140.66;100.00;55571.53;5114243;28;20031;-71
2023/05/07 10:09:46;;;;;;;5.60;2.40;;;;;;;-140.66;100.00;55571.53;5114346;28;20047;-70
2023/05/07 10:12:38;;;;;;;5.82;2.47;;;;;;;-140.66;100.00;55571.53;5114080;28;20043;-70
2023/05/07 10:15:25;;;;;;;4.68;2.45;;;;;;;-140.66;100.00;55571.53;5114479;28;20458;-70
2023/05/07 10:18:12;;;;;;;3.47;2.00;;;;;;;-140.66;100.00;55571.53;5099652;28;20080;-71
2023/05/07 10:21:20;;;;;;;8.68;2.47;;;;;;;-140.66;100.00;55571.53;5114041;28;20042;-72
2023/05/07 10:24:14;;;;;;;4.82;2.25;;;;;;;-140.66;100.00;55571.53;5115136;28;20036;-72
2023/05/07 10:27:02;;;;;;;6.72;2.30;;;;;;;-140.66;100.00;55571.53;5099811;28;20041;-71
2023/05/07 10:30:09;;;;;;;4.05;2.38;;;;;;;-140.66;100.00;55571.53;5114329;28;20085;-71
2023/05/07 10:33:05;;;;;;;6.75;2.58;;;;;;;-140.66;100.00;55571.53;5113626;28;20035;-71
2023/05/07 10:35:51;;;;;;;3.60;2.13;;;;;;;-140.66;100.00;55571.53;5113930;28;20016;-70
2023/05/07 10:38:37;;;;;;;5.20;2.58;;;;;;;-140.66;100.00;55571.53;5114043;28;20110;-71
2023/05/07 10:41:22;;;;;;;6.13;2.55;;;;;;;-140.66;100.00;55571.53;5113869;28;20106;-71
2023/05/07 10:44:08;;;;;;;3.88;2.58;;;;;;;-140.66;100.00;55571.53;5113994;28;20020;-70
2023/05/07 10:47:20;;;;;;;6.15;2.28;;;;;;;-140.66;100.00;55571.53;5113774;28;20053;-70
2023/05/07 10:50:06;;;;;;;3.90;2.38;;;;;;;-140.66;100.00;55571.53;5115012;28;20156;-70
2023/05/07 10:53:16;;;;;;;4.70;2.50;;;;;;;-140.66;100.00;55571.53;5116779;28;20081;-71
2023/05/07 10:56:18;;;;;;;3.50;2.08;;;;;;;-140.66;100.00;55571.53;5103162;28;20035;-70
2023/05/07 10:59:30;;;;;;;4.45;2.40;;;;;;;-140.66;100.00;55571.53;5117336;28;20409;-71
2023/05/07 11:02:16;;;;;;;3.70;2.30;;;;;;;-140.66;100.00;55571.53;5117531;28;20032;-71
2023/05/07 11:05:22;;;;;;;4.10;2.20;;;;;;;-140.66;100.00;55571.53;5117344;28;20024;-72
2023/05/07 11:08:09;;;;;;;4.18;2.38;;;;;;;-140.66;100.00;55571.53;5117206;28;20057;-70
2023/05/07 11:10:58;;;;;;;5.40;2.95;;;;;;;-140.66;100.00;55571.53;5117002;28;20138;-71
2023/05/07 11:13:46;;;;;;;3.97;2.00;;;;;;;-140.66;100.00;55571.53;5117253;28;20032;-71
2023/05/07 11:16:33;;;;;;;3.25;2.30;;;;;;;-140.66;100.00;55571.53;5103200;28;20037;-70
2023/05/07 11:19:49;;;;;;;3.45;2.10;;;;;;;-140.66;100.00;55571.53;5117137;28;20050;-71
2023/05/07 11:22:36;;;;;;;7.65;2.70;;;;;;;-140.66;100.00;55571.53;5117189;28;20038;-71
2023/05/07 11:25:22;;;;;;;5.22;2.42;;;;;;;-140.66;100.00;55571.53;5117252;28;20438;-71
2023/05/07 11:28:10;;;;;;;4.88;2.40;;;;;;;-140.66;100.00;55571.53;5116888;28;20047;-71
2023/05/07 11:30:57;;;;;;;3.40;2.47;;;;;;;-140.66;100.00;55571.53;5116835;28;20023;-71
2023/05/07 11:33:44;;;;;;;7.60;2.35;;;;;;;-140.66;100.00;55571.53;5117244;28;20565;-70
2023/05/07 11:36:32;;;;;;;4.15;2.22;;;;;;;-140.66;100.00;55571.53;5117007;28;20042;-71
2023/05/07 11:39:29;;;;;;;4.63;2.42;;;;;;;-140.66;100.00;55571.53;5116586;28;20020;-71
2023/05/07 11:42:37;;;;;;;5.05;2.65;;;;;;;-140.66;100.00;55571.53;5116907;28;20039;-71
2023/05/07 11:45:25;;;;;;;6.13;2.45;;;;;;;-140.66;100.00;55571.53;5116555;28;20024;-71
2023/05/07 11:48:12;;;;;;;3.75;2.10;;;;;;;-140.66;100.00;55571.53;5116265;28;20047;-71
2023/05/07 11:51:04;;;;;;;13.88;2.85;;;;;;;-140.66;100.00;55571.53;5116913;28;20363;-70
2023/05/07 11:53:50;;;;;;;4.97;2.70;;;;;;;-140.66;100.00;55571.53;5118415;27;20032;-70
2023/05/07 11:56:36;;;;;;;5.13;2.38;;;;;;;-140.66;100.00;55571.53;5116579;28;20120;-70
2023/05/07 11:59:21;;;;;;;4.57;2.35;;;;;;;-140.66;100.00;55571.53;5116644;28;20098;-70
2023/05/07 12:02:08;;;;;;;5.00;2.30;;;;;;;-140.66;100.00;55571.53;5115826;28;20028;-70
2023/05/07 12:04:54;;;;;;;7.38;2.60;;;;;;;-140.66;100.00;55571.53;5116117;28;20456;-71
2023/05/07 12:07:40;;;;;;;6.70;2.30;;;;;;;-140.66;100.00;55571.53;5116035;28;20035;-70
2023/05/07 12:10:26;;;;;;;3.47;2.35;;;;;;;-140.66;100.00;55571.53;5115696;28;20428;-71
2023/05/07 12:13:18;;;;;;;5.20;1.98;;;;;;;-140.66;100.00;55571.53;5116440;28;20019;-71
2023/05/07 12:16:06;;;;;;;5.10;2.42;;;;;;;-140.66;100.00;55571.53;5115834;28;20456;-70
2023/05/07 12:18:54;;;;;;;4.13;2.40;;;;;;;-140.66;100.00;55571.53;5115811;28;20395;-71
2023/05/07 12:21:40;;;;;;;3.92;2.42;;;;;;;-140.66;100.00;55571.53;5115863;28;20439;-70
2023/05/07 12:24:26;;;;;;;3.03;2.08;;;;;;;-140.66;100.00;55571.53;5116305;28;20070;-70
2023/05/07 12:27:13;;;;;;;6.88;2.60;;;;;;;-140.66;100.00;55571.53;5088938;28;20023;-71
2023/05/07 12:29:59;;;;;;;3.72;2.40;;;;;;;-140.66;100.00;55571.53;5115751;28;20020;-70
2023/05/07 12:32:45;;;;;;;7.47;2.50;;;;;;;-140.66;100.00;55571.53;5115773;28;20114;-71
2023/05/07 12:35:35;;;;;;;5.28;2.30;;;;;;;-140.66;100.00;55571.53;5115843;28;20024;-70